sensor_id;sensor_type;location;lat;lon;timestamp;pressure;altitude;pressure_sealevel;temperature;humidity
60373;BME280;46216;52.220;5.134;2023-02-20T00:02:02;102649.19;;;6.64;100.00
60373;BME280;46216;52.220;5.134;2023-02-20T00:04:27;102666.81;;;6.66;100.00
60373;BME280;46216;52.220;5.134;2023-02-20T00:06:52;102680.88;;;6.69;100.00
60373;BME280;46216;52.220;5.134;2023-02-20T00:09:18;102677.34;;;6.69;100.00
60373;BME280;46216;52.220;5.134;2023-02-20T00:11:43;102667.59;;;6.71;100.00
60373;BME280;46216;52.220;5.134;2023-02-20T00:14:09;102664.00;;;6.72;100.00
60373;BME280;46216;52.220;5.134;2023-02-20T00:16:34;102653.38;;;6.73;100.00
60373;BME280;46216;52.220;5.134;2023-02-20T00:18:59;102649.88;;;6.73;100.00
60373;BME280;46216;52.220;5.134;2023-02-20T00:21:24;102654.16;;;6.77;100.00
60373;BME280;46216;52.220;5.134;2023-02-20T00:23:50;102637.31;;;6.79;100.00
60373;BME280;46216;52.220;5.134;2023-02-20T00:26:15;102635.56;;;6.78;100.00
60373;BME280;46216;52.220;5.134;2023-02-20T00:28:42;102628.44;;;6.80;100.00
60373;BME280;46216;52.220;5.134;2023-02-20T00:31:11;102628.38;;;6.82;100.00
60373;BME280;46216;52.220;5.134;2023-02-20T00:33:37;102625.81;;;6.79;100.00
60373;BME280;46216;52.220;5.134;2023-02-20T00:36:03;102632.75;;;6.84;100.00
60373;BME280;46216;52.220;5.134;2023-02-20T00:38:28;102612.47;;;6.83;100.00
60373;BME280;46216;52.220;5.134;2023-02-20T00:40:54;102621.19;;;6.87;100.00
60373;BME280;46216;52.220;5.134;2023-02-20T00:43:19;102619.41;;;6.87;100.00
60373;BME280;46216;52.220;5.134;2023-02-20T00:45:45;102620.19;;;6.91;100.00
60373;BME280;46216;52.220;5.134;2023-02-20T00:48:10;102610.81;;;6.79;100.00
60373;BME280;46216;52.220;5.134;2023-02-20T00:50:35;102607.94;;;6.87;100.00
60373;BME280;46216;52.220;5.134;2023-02-20T00:53:01;102610.50;;;6.90;100.00
60373;BME280;46216;52.220;5.134;2023-02-20T00:55:27;102605.22;;;6.88;100.00
60373;BME280;46216;52.220;5.134;2023-02-20T00:57:52;102603.53;;;6.86;100.00
60373;BME280;46216;52.220;5.134;2023-02-20T01:00:22;102607.94;;;6.87;100.00
60373;BME280;46216;52.220;5.134;2023-02-20T01:02:48;102595.59;;;6.86;100.00
60373;BME280;46216;52.220;5.134;2023-02-20T01:05:13;102585.88;;;6.86;100.00
60373;BME280;46216;52.220;5.134;2023-02-20T01:07:39;102556.06;;;6.78;100.00
60373;BME280;46216;52.220;5.134;2023-02-20T01:10:05;102540.06;;;6.83;100.00
60373;BME280;46216;52.220;5.134;2023-02-20T01:12:30;102544.59;;;6.78;100.00
60373;BME280;46216;52.220;5.134;2023-02-20T01:14:55;102531.34;;;6.78;100.00
60373;BME280;46216;52.220;5.134;2023-02-20T01:17:21;102526.19;;;6.73;100.00
60373;BME280;46216;52.220;5.134;2023-02-20T01:19:46;102531.44;;;6.75;100.00
60373;BME280;46216;52.220;5.134;2023-02-20T01:22:11;102531.53;;;6.72;100.00
60373;BME280;46216;52.220;5.134;2023-02-20T01:24:37;102535.19;;;6.68;100.00
60373;BME280;46216;52.220;5.134;2023-02-20T01:27:03;102548.34;;;6.71;100.00
60373;BME280;46216;52.220;5.134;2023-02-20T01:29:28;102544.16;;;6.62;100.00
60373;BME280;46216;52.220;5.134;2023-02-20T01:31:53;102545.09;;;6.61;100.00
60373;BME280;46216;52.220;5.134;2023-02-20T01:34:20;102537.97;;;6.63;100.00
60373;BME280;46216;52.220;5.134;2023-02-20T01:36:50;102532.69;;;6.63;100.00
60373;BME280;46216;52.220;5.134;2023-02-20T01:39:20;102538.97;;;6.59;100.00
60373;BME280;46216;52.220;5.134;2023-02-20T01:41:47;102539.84;;;6.59;100.00
60373;BME280;46216;52.220;5.134;2023-02-20T01:44:21;102537.28;;;6.56;100.00
60373;BME280;46216;52.220;5.134;2023-02-20T01:46:50;102530.28;;;6.54;100.00
60373;BME280;46216;52.220;5.134;2023-02-20T01:49:21;102533.00;;;6.52;100.00
60373;BME280;46216;52.220;5.134;2023-02-20T01:51:52;102534.63;;;6.56;100.00
60373;BME280;46216;52.220;5.134;2023-02-20T01:54:21;102532.06;;;6.53;100.00
60373;BME280;46216;52.220;5.134;2023-02-20T01:56:48;102533.84;;;6.53;100.00
60373;BME280;46216;52.220;5.134;2023-02-20T01:59:15;102529.44;;;6.52;100.00
60373;BME280;46216;52.220;5.134;2023-02-20T02:01:41;102521.47;;;6.53;100.00
60373;BME280;46216;52.220;5.134;2023-02-20T02:04:08;102519.63;;;6.55;100.00
60373;BME280;46216;52.220;5.134;2023-02-20T02:06:40;102519.63;;;6.55;100.00
60373;BME280;46216;52.220;5.134;2023-02-20T02:09:14;102509.03;;;6.55;100.00
60373;BME280;46216;52.220;5.134;2023-02-20T02:11:42;102524.81;;;6.60;100.00
60373;BME280;46216;52.220;5.134;2023-02-20T02:14:08;102521.16;;;6.64;100.00
60373;BME280;46216;52.220;5.134;2023-02-20T02:16:47;102518.56;;;6.62;100.00
60373;BME280;46216;52.220;5.134;2023-02-20T02:28:16;102504.75;;;6.81;100.00
60373;BME280;46216;52.220;5.134;2023-02-20T02:31:09;102503.75;;;6.85;100.00
60373;BME280;46216;52.220;5.134;2023-02-20T02:36:51;102489.28;;;6.95;100.00
60373;BME280;46216;52.220;5.134;2023-02-20T02:42:17;102482.78;;;7.05;100.00
60373;BME280;46216;52.220;5.134;2023-02-20T02:44:56;102483.53;;;7.10;100.00
60373;BME280;46216;52.220;5.134;2023-02-20T02:47:36;102485.19;;;7.13;100.00
60373;BME280;46216;52.220;5.134;2023-02-20T02:50:10;102478.00;;;7.17;100.00
60373;BME280;46216;52.220;5.134;2023-02-20T02:52:37;102476.91;;;7.24;100.00
60373;BME280;46216;52.220;5.134;2023-02-20T02:55:25;102480.44;;;7.24;100.00
60373;BME280;46216;52.220;5.134;2023-02-20T02:57:51;102470.69;;;7.25;100.00
60373;BME280;46216;52.220;5.134;2023-02-20T03:00:31;102480.06;;;7.35;100.00
60373;BME280;46216;52.220;5.134;2023-02-20T03:03:07;102468.50;;;7.38;100.00
60373;BME280;46216;52.220;5.134;2023-02-20T03:05:44;102476.31;;;7.42;100.00
60373;BME280;46216;52.220;5.134;2023-02-20T03:08:18;102469.06;;;7.47;100.00
60373;BME280;46216;52.220;5.134;2023-02-20T03:10:57;102464.56;;;7.49;100.00
60373;BME280;46216;52.220;5.134;2023-02-20T03:13:25;102467.06;;;7.54;100.00
60373;BME280;46216;52.220;5.134;2023-02-20T03:16:11;102459.91;;;7.56;100.00
60373;BME280;46216;52.220;5.134;2023-02-20T03:18:40;102465.97;;;7.59;100.00
60373;BME280;46216;52.220;5.134;2023-02-20T03:21:12;102466.75;;;7.63;100.00
60373;BME280;46216;52.220;5.134;2023-02-20T03:23:43;102457.81;;;7.66;100.00
60373;BME280;46216;52.220;5.134;2023-02-20T03:26:14;102464.81;;;7.68;100.00
60373;BME280;46216;52.220;5.134;2023-02-20T03:28:45;102458.41;;;7.74;100.00
60373;BME280;46216;52.220;5.134;2023-02-20T03:33:41;102458.19;;;7.80;100.00
60373;BME280;46216;52.220;5.134;2023-02-20T03:36:35;102454.63;;;7.81;100.00
60373;BME280;46216;52.220;5.134;2023-02-20T03:39:24;102451.91;;;7.82;100.00
60373;BME280;46216;52.220;5.134;2023-02-20T03:42:12;102439.50;;;7.83;100.00
60373;BME280;46216;52.220;5.134;2023-02-20T03:44:59;102438.47;;;7.87;100.00
60373;BME280;46216;52.220;5.134;2023-02-20T03:47:27;102439.31;;;7.89;100.00
60373;BME280;46216;52.220;5.134;2023-02-20T03:49:54;102432.09;;;7.93;100.00
60373;BME280;46216;52.220;5.134;2023-02-20T03:52:21;102437.19;;;7.99;100.00
60373;BME280;46216;52.220;5.134;2023-02-20T03:54:47;102432.75;;;7.99;100.00
60373;BME280;46216;52.220;5.134;2023-02-20T03:57:27;102426.72;;;7.94;100.00
60373;BME280;46216;52.220;5.134;2023-02-20T04:02:35;102420.25;;;8.01;100.00
60373;BME280;46216;52.220;5.134;2023-02-20T04:05:06;102424.59;;;8.04;100.00
60373;BME280;46216;52.220;5.134;2023-02-20T04:07:37;102423.63;;;8.06;100.00
60373;BME280;46216;52.220;5.134;2023-02-20T04:10:06;102403.13;;;8.10;100.00
60373;BME280;46216;52.220;5.134;2023-02-20T04:12:37;102414.63;;;8.11;100.00
60373;BME280;46216;52.220;5.134;2023-02-20T04:15:06;102426.75;;;8.18;100.00
60373;BME280;46216;52.220;5.134;2023-02-20T04:17:39;102412.59;;;8.17;100.00
60373;BME280;46216;52.220;5.134;2023-02-20T04:20:05;102404.59;;;8.19;100.00
60373;BME280;46216;52.220;5.134;2023-02-20T04:22:34;102416.81;;;8.23;100.00
60373;BME280;46216;52.220;5.134;2023-02-20T04:25:11;102423.03;;;8.22;100.00
60373;BME280;46216;52.220;5.134;2023-02-20T04:27:39;102417.63;;;8.25;100.00
60373;BME280;46216;52.220;5.134;2023-02-20T04:30:04;102418.53;;;8.24;100.00
60373;BME280;46216;52.220;5.134;2023-02-20T04:32:30;102419.38;;;8.26;100.00
60373;BME280;46216;52.220;5.134;2023-02-20T04:34:55;102417.38;;;8.31;100.00
60373;BME280;46216;52.220;5.134;2023-02-20T04:37:21;102421.16;;;8.25;100.00
60373;BME280;46216;52.220;5.134;2023-02-20T04:39:46;102421.78;;;8.32;100.00
60373;BME280;46216;52.220;5.134;2023-02-20T04:42:12;102416.47;;;8.32;100.00
60373;BME280;46216;52.220;5.134;2023-02-20T04:44:37;102421.78;;;8.32;100.00
60373;BME280;46216;52.220;5.134;2023-02-20T04:47:06;102419.88;;;8.36;100.00
60373;BME280;46216;52.220;5.134;2023-02-20T04:49:32;102430.44;;;8.37;100.00
60373;BME280;46216;52.220;5.134;2023-02-20T04:51:58;102418.97;;;8.37;100.00
60373;BME280;46216;52.220;5.134;2023-02-20T04:54:24;102417.09;;;8.40;100.00
60373;BME280;46216;52.220;5.134;2023-02-20T04:56:50;102420.59;;;8.41;100.00
60373;BME280;46216;52.220;5.134;2023-02-20T04:59:16;102418.81;;;8.41;100.00
60373;BME280;46216;52.220;5.134;2023-02-20T05:01:41;102416.25;;;8.38;100.00
60373;BME280;46216;52.220;5.134;2023-02-20T05:04:12;102404.72;;;8.39;100.00
60373;BME280;46216;52.220;5.134;2023-02-20T05:06:42;102413.50;;;8.41;100.00
60373;BME280;46216;52.220;5.134;2023-02-20T05:09:08;102428.34;;;8.47;100.00
60373;BME280;46216;52.220;5.134;2023-02-20T05:11:35;102419.00;;;8.35;100.00
60373;BME280;46216;52.220;5.134;2023-02-20T05:14:01;102416.00;;;8.46;100.00
60373;BME280;46216;52.220;5.134;2023-02-20T05:16:26;102416.84;;;8.46;100.00
60373;BME280;46216;52.220;5.134;2023-02-20T05:18:52;102419.44;;;8.48;100.00
60373;BME280;46216;52.220;5.134;2023-02-20T05:21:17;102430.06;;;8.48;100.00
60373;BME280;46216;52.220;5.134;2023-02-20T05:24:01;102430.06;;;8.48;100.00
60373;BME280;46216;52.220;5.134;2023-02-20T05:26:26;102438.84;;;8.50;100.00
60373;BME280;46216;52.220;5.134;2023-02-20T05:28:52;102436.13;;;8.51;100.00
60373;BME280;46216;52.220;5.134;2023-02-20T05:31:17;102439.59;;;8.53;100.00
60373;BME280;46216;52.220;5.134;2023-02-20T05:33:43;102445.84;;;8.52;100.00
60373;BME280;46216;52.220;5.134;2023-02-20T05:36:08;102431.66;;;8.52;100.00
60373;BME280;46216;52.220;5.134;2023-02-20T05:38:33;102430.66;;;8.56;100.00
60373;BME280;46216;52.220;5.134;2023-02-20T05:40:59;102424.44;;;8.56;100.00
60373;BME280;46216;52.220;5.134;2023-02-20T05:43:24;102428.00;;;8.56;100.00
60373;BME280;46216;52.220;5.134;2023-02-20T05:45:49;102421.88;;;8.54;100.00
60373;BME280;46216;52.220;5.134;2023-02-20T05:48:15;102417.53;;;8.51;100.00
60373;BME280;46216;52.220;5.134;2023-02-20T05:50:40;102420.25;;;8.50;100.00
60373;BME280;46216;52.220;5.134;2023-02-20T05:53:06;102414.88;;;8.51;100.00
60373;BME280;46216;52.220;5.134;2023-02-20T05:55:32;102417.53;;;8.51;100.00
60373;BME280;46216;52.220;5.134;2023-02-20T05:57:57;102414.88;;;8.51;100.00
60373;BME280;46216;52.220;5.134;2023-02-20T06:00:24;102416.63;;;8.52;100.00
60373;BME280;46216;52.220;5.134;2023-02-20T06:02:49;102410.47;;;8.50;100.00
60373;BME280;46216;52.220;5.134;2023-02-20T06:05:15;102411.53;;;8.46;100.00
60373;BME280;46216;52.220;5.134;2023-02-20T06:07:45;102411.47;;;8.48;100.00
60373;BME280;46216;52.220;5.134;2023-02-20T06:10:10;102414.88;;;8.51;100.00
60373;BME280;46216;52.220;5.134;2023-02-20T06:12:36;102410.59;;;8.47;100.00
60373;BME280;46216;52.220;5.134;2023-02-20T06:15:01;102403.50;;;8.48;100.00
60373;BME280;46216;52.220;5.134;2023-02-20T06:17:27;102414.13;;;8.48;100.00
60373;BME280;46216;52.220;5.134;2023-02-20T06:19:53;102420.53;;;8.42;100.00
60373;BME280;46216;52.220;5.134;2023-02-20T06:22:19;102401.03;;;8.43;100.00
60373;BME280;46216;52.220;5.134;2023-02-20T06:24:45;102407.31;;;8.41;100.00
60373;BME280;46216;52.220;5.134;2023-02-20T06:27:11;102408.88;;;8.46;100.00
60373;BME280;46216;52.220;5.134;2023-02-20T06:29:36;102411.66;;;8.43;100.00
60373;BME280;46216;52.220;5.134;2023-02-20T06:32:02;102418.88;;;8.40;100.00
60373;BME280;46216;52.220;5.134;2023-02-20T06:34:27;102422.31;;;8.42;100.00
60373;BME280;46216;52.220;5.134;2023-02-20T06:36:58;102420.41;;;8.45;100.00
60373;BME280;46216;52.220;5.134;2023-02-20T06:39:23;102422.41;;;8.40;100.00
60373;BME280;46216;52.220;5.134;2023-02-20T06:41:49;102411.81;;;8.39;100.00
60373;BME280;46216;52.220;5.134;2023-02-20T06:44:14;102413.59;;;8.38;100.00
60373;BME280;46216;52.220;5.134;2023-02-20T06:46:40;102420.53;;;8.42;100.00
60373;BME280;46216;52.220;5.134;2023-02-20T06:49:05;102418.81;;;8.41;100.00
60373;BME280;46216;52.220;5.134;2023-02-20T06:51:32;102416.31;;;8.37;100.00
60373;BME280;46216;52.220;5.134;2023-02-20T06:53:58;102420.66;;;8.39;100.00
60373;BME280;46216;52.220;5.134;2023-02-20T06:56:27;102417.94;;;8.41;100.00
60373;BME280;46216;52.220;5.134;2023-02-20T06:58:53;102421.56;;;8.38;100.00
60373;BME280;46216;52.220;5.134;2023-02-20T07:01:20;102408.38;;;8.35;100.00
60373;BME280;46216;52.220;5.134;2023-02-20T07:03:47;102420.75;;;8.36;100.00
60373;BME280;46216;52.220;5.134;2023-02-20T07:06:13;102414.56;;;8.36;100.00
60373;BME280;46216;52.220;5.134;2023-02-20T07:08:38;102406.44;;;8.40;100.00
60373;BME280;46216;52.220;5.134;2023-02-20T07:11:04;102414.41;;;8.40;100.00
60373;BME280;46216;52.220;5.134;2023-02-20T07:13:29;102411.09;;;8.34;100.00
60373;BME280;46216;52.220;5.134;2023-02-20T07:15:54;102418.91;;;8.38;100.00
60373;BME280;46216;52.220;5.134;2023-02-20T07:18:20;102419.63;;;8.43;100.00
60373;BME280;46216;52.220;5.134;2023-02-20T07:20:52;102425.09;;;8.39;100.00
60373;BME280;46216;52.220;5.134;2023-02-20T07:23:18;102424.00;;;8.44;100.00
60373;BME280;46216;52.220;5.134;2023-02-20T07:25:43;102432.19;;;8.38;100.00
60373;BME280;46216;52.220;5.134;2023-02-20T07:28:08;102433.78;;;8.44;100.00
60373;BME280;46216;52.220;5.134;2023-02-20T07:30:34;102434.44;;;8.49;100.00
60373;BME280;46216;52.220;5.134;2023-02-20T07:32:59;102434.50;;;8.47;100.00
60373;BME280;46216;52.220;5.134;2023-02-20T07:35:25;102435.34;;;8.49;100.00
60373;BME280;46216;52.220;5.134;2023-02-20T07:37:50;102436.25;;;8.48;100.00
60373;BME280;46216;52.220;5.134;2023-02-20T07:40:15;102430.81;;;8.51;100.00
60373;BME280;46216;52.220;5.134;2023-02-20T07:42:41;102438.63;;;8.56;100.00
60373;BME280;46216;52.220;5.134;2023-02-20T07:45:06;102424.41;;;8.57;100.00
60373;BME280;46216;52.220;5.134;2023-02-20T07:47:31;102426.09;;;8.60;100.00
60373;BME280;46216;52.220;5.134;2023-02-20T07:49:57;102420.06;;;8.55;100.00
60373;BME280;46216;52.220;5.134;2023-02-20T07:52:22;102419.13;;;8.56;100.00
60373;BME280;46216;52.220;5.134;2023-02-20T07:54:47;102421.78;;;8.56;100.00
60373;BME280;46216;52.220;5.134;2023-02-20T07:57:13;102425.16;;;8.61;100.00
60373;BME280;46216;52.220;5.134;2023-02-20T07:59:39;102426.09;;;8.60;100.00
60373;BME280;46216;52.220;5.134;2023-02-20T08:02:05;102417.41;;;8.55;100.00
60373;BME280;46216;52.220;5.134;2023-02-20T08:04:31;102424.41;;;8.57;100.00
60373;BME280;46216;52.220;5.134;2023-02-20T08:06:56;102422.28;;;8.65;100.00
60373;BME280;46216;52.220;5.134;2023-02-20T08:09:21;102415.25;;;8.64;100.00
60373;BME280;46216;52.220;5.134;2023-02-20T08:11:46;102424.72;;;8.71;100.00
60373;BME280;46216;52.220;5.134;2023-02-20T08:14:13;102413.03;;;8.75;100.00
60373;BME280;46216;52.220;5.134;2023-02-20T08:16:38;102412.06;;;8.78;100.00
60373;BME280;46216;52.220;5.134;2023-02-20T08:19:04;102427.06;;;8.79;100.00
60373;BME280;46216;52.220;5.134;2023-02-20T08:21:29;102419.94;;;8.80;100.00
60373;BME280;46216;52.220;5.134;2023-02-20T08:23:54;102426.03;;;8.83;100.00
60373;BME280;46216;52.220;5.134;2023-02-20T08:26:20;102417.13;;;8.84;100.00
60373;BME280;46216;52.220;5.134;2023-02-20T08:28:46;102420.56;;;8.86;100.00
60373;BME280;46216;52.220;5.134;2023-02-20T08:31:13;102421.38;;;8.88;100.00
60373;BME280;46216;52.220;5.134;2023-02-20T08:33:38;102423.31;;;8.85;100.00
60373;BME280;46216;52.220;5.134;2023-02-20T08:36:04;102418.63;;;8.91;100.00
60373;BME280;46216;52.220;5.134;2023-02-20T08:38:34;102422.31;;;8.87;100.00
60373;BME280;46216;52.220;5.134;2023-02-20T08:41:05;102412.59;;;8.86;100.00
60373;BME280;46216;52.220;5.134;2023-02-20T08:43:32;102417.78;;;8.89;100.00
60373;BME280;46216;52.220;5.134;2023-02-20T08:45:58;102411.44;;;8.93;100.00
60373;BME280;46216;52.220;5.134;2023-02-20T08:48:23;102407.97;;;8.91;100.00
60373;BME280;46216;52.220;5.134;2023-02-20T08:50:48;102412.34;;;8.92;100.00
60373;BME280;46216;52.220;5.134;2023-02-20T08:53:14;102413.06;;;8.97;100.00
60373;BME280;46216;52.220;5.134;2023-02-20T08:55:39;102407.72;;;8.97;100.00
60373;BME280;46216;52.220;5.134;2023-02-20T08:58:07;102393.63;;;8.95;100.00
60373;BME280;46216;52.220;5.134;2023-02-20T09:00:32;102392.63;;;8.98;100.00
60373;BME280;46216;52.220;5.134;2023-02-20T09:02:57;102389.66;;;9.06;100.00
60373;BME280;46216;52.220;5.134;2023-02-20T09:05:24;102403.16;;;9.01;100.00
60373;BME280;46216;52.220;5.134;2023-02-20T09:07:50;102393.38;;;9.02;100.00
60373;BME280;46216;52.220;5.134;2023-02-20T09:10:18;102404.75;;;9.05;100.00
60373;BME280;46216;52.220;5.134;2023-02-20T09:12:44;102395.09;;;9.03;100.00
60373;BME280;46216;52.220;5.134;2023-02-20T09:15:10;102394.97;;;9.06;100.00
60373;BME280;46216;52.220;5.134;2023-02-20T09:17:36;102394.97;;;9.06;100.00
60373;BME280;46216;52.220;5.134;2023-02-20T09:20:01;102400.41;;;9.03;100.00
60373;BME280;46216;52.220;5.134;2023-02-20T09:22:26;102405.69;;;9.04;100.00
60373;BME280;46216;52.220;5.134;2023-02-20T09:24:52;102401.03;;;9.09;100.00
60373;BME280;46216;52.220;5.134;2023-02-20T09:27:18;102407.22;;;9.10;100.00
60373;BME280;46216;52.220;5.134;2023-02-20T09:29:44;102399.09;;;9.13;100.00
60373;BME280;46216;52.220;5.134;2023-02-20T09:32:10;102399.22;;;9.10;100.00
60373;BME280;46216;52.220;5.134;2023-02-20T09:34:36;102411.34;;;9.17;100.00
60373;BME280;46216;52.220;5.134;2023-02-20T09:37:01;102407.09;;;9.13;100.00
60373;BME280;46216;52.220;5.134;2023-02-20T09:39:27;102394.84;;;9.09;100.00
60373;BME280;46216;52.220;5.134;2023-02-20T09:45:04;102408.44;;;9.23;100.00
60373;BME280;46216;52.220;5.134;2023-02-20T09:53:00;102387.16;;;9.23;100.00
60373;BME280;46216;52.220;5.134;2023-02-20T09:55:33;102386.97;;;9.28;100.00
60373;BME280;46216;52.220;5.134;2023-02-20T09:58:02;102405.53;;;9.29;100.00
60373;BME280;46216;52.220;5.134;2023-02-20T10:00:31;102403.78;;;9.28;100.00
60373;BME280;46216;52.220;5.134;2023-02-20T10:03:12;102411.78;;;9.28;100.00
60373;BME280;46216;52.220;5.134;2023-02-20T10:05:41;102393.94;;;9.30;100.00
60373;BME280;46216;52.220;5.134;2023-02-20T10:08:09;102402.84;;;9.29;100.00
60373;BME280;46216;52.220;5.134;2023-02-20T10:10:35;102400.16;;;9.31;100.00
60373;BME280;46216;52.220;5.134;2023-02-20T10:16:01;102402.72;;;9.32;100.00
60373;BME280;46216;52.220;5.134;2023-02-20T10:18:43;102402.34;;;9.41;100.00
60373;BME280;46216;52.220;5.134;2023-02-20T10:21:28;102388.09;;;9.42;100.00
60373;BME280;46216;52.220;5.134;2023-02-20T10:27:37;102398.66;;;9.44;100.00
60373;BME280;46216;52.220;5.134;2023-02-20T10:29:58;102402.13;;;9.46;100.00
60373;BME280;46216;52.220;5.134;2023-02-20T10:32:39;102381.59;;;9.50;100.00
60373;BME280;46216;52.220;5.134;2023-02-20T10:35:10;102355.66;;;9.55;100.00
60373;BME280;46216;52.220;5.134;2023-02-20T10:37:43;102376.03;;;9.54;100.00
60373;BME280;46216;52.220;5.134;2023-02-20T10:40:35;102375.31;;;9.51;100.00
60373;BME280;46216;52.220;5.134;2023-02-20T10:43:13;102375.19;;;9.54;100.00
60373;BME280;46216;52.220;5.134;2023-02-20T10:45:50;102378.72;;;9.54;100.00
60373;BME280;46216;52.220;5.134;2023-02-20T10:48:18;102378.91;;;9.50;100.00
60373;BME280;46216;52.220;5.134;2023-02-20T10:50:53;102406.00;;;9.59;100.00
60373;BME280;46216;52.220;5.134;2023-02-20T10:53:32;102395.56;;;9.55;100.00
60373;BME280;46216;52.220;5.134;2023-02-20T11:01:35;102398.38;;;9.52;100.00
60373;BME280;46216;52.220;5.134;2023-02-20T11:04:21;102387.72;;;9.52;100.00
60373;BME280;46216;52.220;5.134;2023-02-20T11:06:57;102360.28;;;9.50;100.00
60373;BME280;46216;52.220;5.134;2023-02-20T11:09:23;102366.81;;;9.42;100.00
60373;BME280;46216;52.220;5.134;2023-02-20T11:11:52;102381.84;;;9.43;100.00
60373;BME280;46216;52.220;5.134;2023-02-20T11:14:32;102391.56;;;9.44;100.00
60373;BME280;46216;52.220;5.134;2023-02-20T11:17:04;102402.22;;;9.44;100.00
60373;BME280;46216;52.220;5.134;2023-02-20T11:19:46;102406.53;;;9.47;100.00
60373;BME280;46216;52.220;5.134;2023-02-20T11:22:12;102380.50;;;9.54;100.00
60373;BME280;46216;52.220;5.134;2023-02-20T11:24:40;102356.56;;;9.54;100.00
60373;BME280;46216;52.220;5.134;2023-02-20T11:27:21;102378.78;;;9.53;100.00
60373;BME280;46216;52.220;5.134;2023-02-20T11:29:51;102394.88;;;9.50;100.00
60373;BME280;46216;52.220;5.134;2023-02-20T11:32:24;102399.28;;;9.51;100.00
60373;BME280;46216;52.220;5.134;2023-02-20T11:35:14;102378.09;;;9.47;100.00
60373;BME280;46216;52.220;5.134;2023-02-20T11:37:46;102368.28;;;9.50;100.00
60373;BME280;46216;52.220;5.134;2023-02-20T11:40:30;102371.75;;;9.52;100.00
60373;BME280;46216;52.220;5.134;2023-02-20T11:43:10;102383.13;;;9.55;100.00
60373;BME280;46216;52.220;5.134;2023-02-20T11:45:40;102377.81;;;9.55;100.00
60373;BME280;46216;52.220;5.134;2023-02-20T11:48:07;102382.09;;;9.58;100.00
60373;BME280;46216;52.220;5.134;2023-02-20T11:53:20;102399.69;;;9.62;100.00
60373;BME280;46216;52.220;5.134;2023-02-20T11:55:46;102398.88;;;9.60;100.00
60373;BME280;46216;52.220;5.134;2023-02-20T11:58:25;102414.47;;;9.48;100.00
60373;BME280;46216;52.220;5.134;2023-02-20T12:00:53;102394.50;;;9.59;100.00
60373;BME280;46216;52.220;5.134;2023-02-20T12:03:24;102406.72;;;9.63;100.00
60373;BME280;46216;52.220;5.134;2023-02-20T12:05:50;102378.25;;;9.65;100.00
60373;BME280;46216;52.220;5.134;2023-02-20T12:11:12;102374.94;;;9.60;100.00
60373;BME280;46216;52.220;5.134;2023-02-20T12:13:45;102366.72;;;9.64;100.00
60373;BME280;46216;52.220;5.134;2023-02-20T12:21:38;102364.47;;;9.76;100.00
60373;BME280;46216;52.220;5.134;2023-02-20T12:24:19;102351.06;;;9.77;100.00
60373;BME280;46216;52.220;5.134;2023-02-20T12:26:52;102351.94;;;9.78;100.00
60373;BME280;46216;52.220;5.134;2023-02-20T12:29:40;102361.72;;;9.77;100.00
60373;BME280;46216;52.220;5.134;2023-02-20T12:32:29;102367.91;;;9.78;100.00
60373;BME280;46216;52.220;5.134;2023-02-20T12:35:29;102361.44;;;9.83;100.00
60373;BME280;46216;52.220;5.134;2023-02-20T12:46:23;102350.25;;;9.95;100.00
60373;BME280;46216;52.220;5.134;2023-02-20T12:51:58;102327.63;;;10.04;100.00
60373;BME280;46216;52.220;5.134;2023-02-20T12:57:25;102323.84;;;10.10;100.00
60373;BME280;46216;52.220;5.134;2023-02-20T13:00:03;102335.13;;;10.15;100.00
60373;BME280;46216;52.220;5.134;2023-02-20T13:02:48;102329.53;;;10.02;100.00
60373;BME280;46216;52.220;5.134;2023-02-20T13:05:18;102327.94;;;10.17;100.00
60373;BME280;46216;52.220;5.134;2023-02-20T13:07:53;102329.78;;;10.15;100.00
60373;BME280;46216;52.220;5.134;2023-02-20T13:10:23;102344.19;;;10.11;100.00
60373;BME280;46216;52.220;5.134;2023-02-20T13:12:50;102337.88;;;10.13;100.00
60373;BME280;46216;52.220;5.134;2023-02-20T13:18:40;102335.06;;;10.16;100.00
60373;BME280;46216;52.220;5.134;2023-02-20T13:21:11;102332.19;;;10.21;100.00
60373;BME280;46216;52.220;5.134;2023-02-20T13:23:38;102332.31;;;10.18;100.00
60373;BME280;46216;52.220;5.134;2023-02-20T13:29:15;102317.28;;;10.17;100.00
60373;BME280;46216;52.220;5.134;2023-02-20T13:31:59;102320.00;;;10.15;100.00
60373;BME280;46216;52.220;5.134;2023-02-20T13:34:38;102305.81;;;10.15;100.00
60373;BME280;46216;52.220;5.134;2023-02-20T13:45:45;102282.41;;;10.22;100.00
60373;BME280;46216;52.220;5.134;2023-02-20T13:53:51;102294.25;;;10.16;100.00
60373;BME280;46216;52.220;5.134;2023-02-20T13:56:20;102297.97;;;10.12;100.00
60373;BME280;46216;52.220;5.134;2023-02-20T13:58:46;102302.28;;;10.14;100.00
60373;BME280;46216;52.220;5.134;2023-02-20T14:01:12;102291.88;;;10.10;100.00
60373;BME280;46216;52.220;5.134;2023-02-20T14:03:37;102293.00;;;10.04;100.00
60373;BME280;46216;52.220;5.134;2023-02-20T14:08:34;102282.16;;;10.09;100.00
60373;BME280;46216;52.220;5.134;2023-02-20T14:11:04;102280.78;;;10.00;100.00
60373;BME280;46216;52.220;5.134;2023-02-20T14:13:30;102275.22;;;10.05;100.00
60373;BME280;46216;52.220;5.134;2023-02-20T14:15:57;102267.22;;;10.05;100.00
60373;BME280;46216;52.220;5.134;2023-02-20T14:20:55;102267.19;;;10.06;100.00
60373;BME280;46216;52.220;5.134;2023-02-20T14:23:27;102265.44;;;10.05;100.00
60373;BME280;46216;52.220;5.134;2023-02-20T14:26:00;102261.13;;;10.03;100.00
60373;BME280;46216;52.220;5.134;2023-02-20T14:28:27;102259.09;;;10.08;100.00
60373;BME280;46216;52.220;5.134;2023-02-20T14:31:32;102274.38;;;10.04;100.00
60373;BME280;46216;52.220;5.134;2023-02-20T14:34:28;102277.41;;;9.97;100.00